Time;durP1;ratioP1;P1;durP2;ratioP2;P2;SDS_P1;SDS_P2;PMS_P1;PMS_P2;Temp;Humidity;BMP_temperature;BMP_pressure;BME280_temperature;BME280_humidity;BME280_pressure;Samples;Min_cycle;Max_cycle;Signal;HPM_P1;HPM_P2
2023/12/25 00:00:04;;;;;;;13.38;2.72;;;12.20;99.90;;;;;;6302586;22;20007;-84
2023/12/25 00:02:34;;;;;;;10.88;3.85;;;12.20;99.90;;;;;;6276658;22;20343;-84
2023/12/25 00:04:59;;;;;;;14.45;2.53;;;12.20;99.90;;;;;;6276791;22;20086;-84
2023/12/25 00:07:25;;;;;;;18.67;3.35;;;12.20;99.90;;;;;;6277081;22;20047;-84
2023/12/25 00:09:54;;;;;;;13.65;3.00;;;12.10;99.90;;;;;;6302809;22;20019;-84
2023/12/25 00:12:23;;;;;;;16.23;3.72;;;12.10;99.90;;;;;;6303409;22;20049;-84
2023/12/25 00:14:50;;;;;;;10.10;2.95;;;12.10;99.90;;;;;;6276171;22;20015;-84
2023/12/25 00:17:16;;;;;;;11.77;2.58;;;12.10;99.90;;;;;;6275542;22;20015;-84
2023/12/25 00:19:46;;;;;;;15.68;3.15;;;12.10;99.90;;;;;;6302107;22;20055;-85
2023/12/25 00:22:11;;;;;;;14.55;3.08;;;12.10;99.90;;;;;;6302301;22;20015;-84
2023/12/25 00:24:37;;;;;;;16.95;3.45;;;12.20;99.90;;;;;;6302225;22;20470;-84
2023/12/25 00:27:03;;;;;;;15.60;2.88;;;12.10;99.90;;;;;;6276307;22;20029;-84
2023/12/25 00:29:30;;;;;;;13.98;2.20;;;12.10;99.90;;;;;;6302482;22;20148;-85
2023/12/25 00:31:56;;;;;;;12.38;2.70;;;12.10;99.90;;;;;;6276362;22;20018;-84
2023/12/25 00:34:21;;;;;;;18.23;2.83;;;12.10;99.90;;;;;;6302468;22;20011;-85
2023/12/25 00:36:47;;;;;;;11.32;2.60;;;12.10;99.90;;;;;;6302309;22;20871;-85
2023/12/25 00:39:13;;;;;;;10.13;2.50;;;12.10;99.90;;;;;;6275561;22;20344;-84
2023/12/25 00:41:39;;;;;;;14.52;2.83;;;12.10;99.90;;;;;;6302150;22;20027;-85
2023/12/25 00:44:05;;;;;;;7.68;1.67;;;12.00;99.90;;;;;;6276108;22;20027;-86
2023/12/25 00:46:30;;;;;;;11.57;2.28;;;12.00;99.90;;;;;;6302030;22;20107;-84
2023/12/25 00:48:56;;;;;;;13.38;2.20;;;12.00;99.90;;;;;;6276075;22;20432;-86
2023/12/25 00:51:23;;;;;;;10.77;2.78;;;12.00;99.90;;;;;;6275890;22;20008;-86
2023/12/25 00:53:48;;;;;;;7.63;2.20;;;11.90;99.90;;;;;;6275351;22;20011;-86
2023/12/25 00:56:14;;;;;;;14.05;2.83;;;12.00;99.90;;;;;;6275637;22;20077;-83
2023/12/25 00:58:40;;;;;;;13.75;2.63;;;12.00;99.90;;;;;;6301748;22;20313;-85
2023/12/25 01:01:05;;;;;;;12.80;2.60;;;11.90;99.90;;;;;;6301894;22;20037;-84
2023/12/25 01:03:32;;;;;;;15.88;2.70;;;11.90;99.90;;;;;;6301777;22;20434;-85
2023/12/25 01:05:59;;;;;;;10.32;2.50;;;11.90;99.90;;;;;;6303259;22;20046;-85
2023/12/25 01:08:28;;;;;;;14.13;3.08;;;11.90;99.90;;;;;;6277103;22;20117;-84
2023/12/25 01:10:55;;;;;;;10.25;2.60;;;11.80;99.90;;;;;;6301657;22;20019;-84
2023/12/25 01:13:20;;;;;;;11.48;2.78;;;11.90;99.90;;;;;;6301823;22;20064;-84
2023/12/25 01:15:46;;;;;;;12.27;2.45;;;11.80;99.90;;;;;;6275777;22;20343;-85
2023/12/25 01:18:16;;;;;;;15.63;3.50;;;11.80;99.90;;;;;;6301424;22;20160;-84
2023/12/25 01:21:00;;;;;;;13.65;2.22;;;11.80;99.90;;;;;;6303552;22;20010;-84
2023/12/25 01:23:26;;;;;;;13.00;2.80;;;11.80;99.90;;;;;;6275046;22;20094;-85
2023/12/25 01:25:52;;;;;;;10.70;2.03;;;11.80;99.90;;;;;;6275724;22;20015;-85
2023/12/25 01:28:17;;;;;;;15.38;2.80;;;11.80;99.90;;;;;;6277786;22;20034;-86
2023/12/25 01:30:46;;;;;;;12.02;2.67;;;11.80;99.90;;;;;;6303502;22;20025;-82
2023/12/25 01:33:12;;;;;;;13.13;2.50;;;11.70;99.90;;;;;;6277126;22;20016;-86
2023/12/25 01:35:42;;;;;;;15.18;2.80;;;11.80;99.90;;;;;;6303994;22;20374;-85
2023/12/25 01:38:08;;;;;;;17.15;2.97;;;11.80;99.90;;;;;;6303352;22;20039;-84
2023/12/25 01:40:36;;;;;;;7.93;2.10;;;11.80;99.90;;;;;;6303587;22;20015;-84
2023/12/25 01:43:08;;;;;;;12.90;2.58;;;11.70;99.90;;;;;;6303570;22;20459;-85
2023/12/25 01:45:34;;;;;;;9.90;2.42;;;11.70;99.90;;;;;;6277412;22;20030;-85
2023/12/25 01:48:00;;;;;;;14.48;2.60;;;11.70;99.90;;;;;;6277164;22;20011;-85
2023/12/25 01:50:28;;;;;;;12.27;2.92;;;11.70;99.90;;;;;;6302223;22;20014;-85
2023/12/25 01:52:54;;;;;;;16.25;3.13;;;11.70;99.90;;;;;;6277741;22;20050;-85
2023/12/25 01:55:22;;;;;;;19.45;2.92;;;11.70;99.90;;;;;;6303085;22;20094;-85
2023/12/25 01:57:48;;;;;;;17.55;2.80;;;11.70;99.90;;;;;;6302940;22;20062;-85
2023/12/25 02:00:17;;;;;;;11.45;2.80;;;11.70;99.90;;;;;;6305258;22;20018;-84
2023/12/25 02:02:43;;;;;;;13.07;2.58;;;11.70;99.90;;;;;;6304526;22;20090;-85
2023/12/25 02:05:09;;;;;;;12.93;3.17;;;11.60;99.90;;;;;;6302793;22;20023;-85
2023/12/25 02:07:39;;;;;;;11.48;2.20;;;11.60;99.90;;;;;;6303600;22;20043;-86
2023/12/25 02:10:07;;;;;;;13.43;2.78;;;11.60;99.90;;;;;;6303546;22;20011;-86
2023/12/25 02:12:34;;;;;;;8.52;2.10;;;11.70;99.90;;;;;;6277968;22;20313;-85
2023/12/25 02:15:00;;;;;;;11.15;3.70;;;11.60;99.90;;;;;;6277497;22;20391;-84
2023/12/25 02:17:26;;;;;;;14.75;2.67;;;11.60;99.90;;;;;;6277131;22;20026;-85
2023/12/25 02:19:53;;;;;;;14.52;2.72;;;11.60;99.90;;;;;;6277364;22;20086;-85
2023/12/25 02:22:19;;;;;;;8.45;2.40;;;11.60;99.90;;;;;;6303344;22;20588;-85
2023/12/25 02:25:06;;;;;;;7.60;2.13;;;11.60;99.90;;;;;;6303263;22;20292;-85
2023/12/25 02:27:31;;;;;;;10.18;1.88;;;11.60;99.90;;;;;;6277750;22;20343;-85
2023/12/25 02:29:57;;;;;;;12.10;2.45;;;11.60;99.90;;;;;;6277454;22;20022;-85
2023/12/25 02:32:23;;;;;;;9.80;2.05;;;11.60;99.90;;;;;;6303018;22;20019;-85
2023/12/25 02:34:48;;;;;;;10.30;2.35;;;11.60;99.90;;;;;;6303336;22;20007;-85
2023/12/25 02:37:14;;;;;;;12.90;2.13;;;11.50;99.90;;;;;;6303724;22;20022;-85
2023/12/25 02:39:40;;;;;;;7.75;2.15;;;11.50;99.90;;;;;;6303073;22;20060;-84
2023/12/25 02:42:06;;;;;;;17.13;2.80;;;11.50;99.90;;;;;;6277225;22;20022;-84
2023/12/25 02:44:31;;;;;;;10.88;2.30;;;11.50;99.90;;;;;;6276292;22;20019;-84
2023/12/25 02:46:57;;;;;;;5.95;1.98;;;11.50;99.90;;;;;;6276876;22;20103;-84
2023/12/25 02:49:23;;;;;;;9.23;2.17;;;11.50;99.90;;;;;;6302449;22;20058;-84
2023/12/25 02:51:48;;;;;;;11.30;2.13;;;11.50;99.90;;;;;;6302551;22;20019;-85
2023/12/25 02:54:14;;;;;;;14.23;3.08;;;11.50;99.90;;;;;;6276887;22;20440;-84
2023/12/25 02:56:40;;;;;;;10.25;1.88;;;11.50;99.90;;;;;;6276902;22;20513;-85
2023/12/25 02:59:06;;;;;;;12.50;2.30;;;11.50;99.90;;;;;;6301904;22;20065;-85
2023/12/25 03:01:32;;;;;;;10.05;2.08;;;11.50;99.90;;;;;;6276762;22;20079;-84
2023/12/25 03:03:57;;;;;;;11.38;2.05;;;11.50;99.90;;;;;;6276790;22;20019;-85
2023/12/25 03:06:23;;;;;;;9.80;2.45;;;11.50;99.90;;;;;;6302664;22;20122;-84
2023/12/25 03:08:49;;;;;;;9.48;2.08;;;11.40;99.90;;;;;;6276810;22;20022;-84
2023/12/25 03:11:15;;;;;;;6.60;1.75;;;11.50;99.90;;;;;;6276243;22;20126;-84
2023/12/25 03:13:40;;;;;;;6.60;1.42;;;11.50;99.90;;;;;;6302008;22;20019;-84
2023/12/25 03:16:07;;;;;;;8.68;1.88;;;11.40;99.90;;;;;;6276790;22;20376;-85
2023/12/25 03:18:33;;;;;;;9.48;2.25;;;11.50;99.90;;;;;;6276844;22;20460;-84
2023/12/25 03:20:59;;;;;;;10.23;1.73;;;11.50;99.90;;;;;;6302929;22;20050;-84
2023/12/25 03:23:25;;;;;;;6.28;1.60;;;11.50;99.90;;;;;;6302544;22;20015;-85
2023/12/25 03:25:51;;;;;;;6.72;1.52;;;11.50;99.90;;;;;;6304740;22;20011;-84
2023/12/25 03:28:17;;;;;;;14.43;2.40;;;11.50;99.90;;;;;;6302451;22;20011;-84
2023/12/25 03:30:43;;;;;;;7.47;1.58;;;11.50;99.90;;;;;;6277203;22;20015;-83
2023/12/25 03:33:08;;;;;;;9.02;2.08;;;11.50;99.90;;;;;;6302159;22;20072;-84
2023/12/25 03:35:34;;;;;;;10.93;2.28;;;11.40;99.90;;;;;;6302340;22;20030;-84
2023/12/25 03:38:00;;;;;;;10.85;2.78;;;11.50;99.90;;;;;;6276566;22;20046;-84
2023/12/25 03:40:26;;;;;;;12.75;2.13;;;11.40;99.90;;;;;;6303913;22;20008;-83
2023/12/25 03:42:54;;;;;;;9.93;2.03;;;11.40;99.90;;;;;;6275396;22;20061;-82
2023/12/25 03:45:20;;;;;;;6.30;1.50;;;11.40;99.90;;;;;;6301416;22;20080;-83
2023/12/25 03:47:45;;;;;;;5.38;1.70;;;11.40;99.90;;;;;;6276104;22;20094;-83
2023/12/25 03:50:11;;;;;;;8.52;1.80;;;11.40;99.90;;;;;;6301508;22;20086;-83
2023/12/25 03:52:37;;;;;;;9.32;1.70;;;11.40;99.90;;;;;;6276085;22;20090;-83
2023/12/25 03:55:03;;;;;;;5.65;2.10;;;11.30;99.90;;;;;;6301976;22;20072;-83
2023/12/25 03:57:28;;;;;;;8.98;1.63;;;11.40;99.90;;;;;;6300946;22;20094;-83
2023/12/25 03:59:54;;;;;;;10.10;2.17;;;11.30;99.90;;;;;;6276093;22;20043;-82
2023/12/25 04:02:20;;;;;;;5.80;1.75;;;11.40;99.90;;;;;;6276066;22;20015;-83
2023/12/25 04:04:46;;;;;;;8.95;2.00;;;11.30;99.90;;;;;;6276471;22;20020;-83
2023/12/25 04:07:12;;;;;;;8.02;1.90;;;11.30;99.90;;;;;;6276241;22;20019;-83
2023/12/25 04:09:38;;;;;;;7.68;1.60;;;11.30;99.90;;;;;;6302133;22;20019;-83
2023/12/25 04:12:04;;;;;;;7.25;1.40;;;11.30;99.90;;;;;;6301181;22;20047;-82
2023/12/25 04:14:30;;;;;;;12.52;2.05;;;11.30;99.90;;;;;;6301327;22;20014;-82
2023/12/25 04:16:56;;;;;;;8.02;1.70;;;11.30;99.90;;;;;;6301175;22;20023;-82
2023/12/25 04:19:25;;;;;;;8.68;1.98;;;11.30;99.90;;;;;;6275026;22;20045;-83
2023/12/25 04:21:53;;;;;;;8.10;1.52;;;11.30;99.90;;;;;;6275584;22;20474;-83
2023/12/25 04:24:19;;;;;;;6.88;1.67;;;11.30;99.90;;;;;;6302416;22;20019;-83
2023/12/25 04:26:45;;;;;;;7.43;1.63;;;11.30;99.90;;;;;;6303208;22;20007;-83
2023/12/25 04:29:11;;;;;;;10.93;2.45;;;11.30;99.90;;;;;;6300800;22;20854;-84
2023/12/25 04:31:44;;;;;;;5.55;1.33;;;11.30;99.90;;;;;;6276658;22;20015;-83
2023/12/25 04:34:10;;;;;;;8.10;1.50;;;11.30;99.90;;;;;;6301657;22;20015;-83
2023/12/25 04:36:37;;;;;;;7.18;1.70;;;11.30;99.90;;;;;;6301661;22;20017;-82
2023/12/25 04:39:03;;;;;;;6.35;1.90;;;11.30;99.90;;;;;;6301253;22;20098;-82
2023/12/25 04:41:29;;;;;;;11.05;1.83;;;11.30;99.90;;;;;;6300845;22;20029;-81
2023/12/25 04:43:57;;;;;;;7.20;1.40;;;11.30;99.90;;;;;;6273283;22;20092;-83
2023/12/25 04:46:23;;;;;;;8.77;1.40;;;11.30;99.90;;;;;;6275960;22;20304;-86
2023/12/25 04:48:49;;;;;;;12.50;3.05;;;11.30;99.90;;;;;;6302023;22;20011;-86
2023/12/25 04:51:14;;;;;;;5.35;1.40;;;11.40;99.90;;;;;;6276393;22;20072;-86
2023/12/25 04:53:41;;;;;;;7.40;1.70;;;11.40;99.90;;;;;;6276301;22;20061;-86
2023/12/25 04:56:10;;;;;;;6.80;1.33;;;11.40;99.90;;;;;;6301843;22;20028;-86
2023/12/25 04:58:36;;;;;;;9.73;2.00;;;11.40;99.90;;;;;;6301816;22;20090;-86
2023/12/25 05:01:03;;;;;;;5.85;1.65;;;11.40;99.90;;;;;;6301185;22;20042;-85
2023/12/25 05:03:29;;;;;;;8.23;1.83;;;11.40;99.90;;;;;;6303400;22;20439;-86
2023/12/25 05:05:55;;;;;;;9.95;1.70;;;11.40;99.90;;;;;;6275994;22;20007;-86
2023/12/25 05:08:20;;;;;;;7.38;1.63;;;11.30;99.90;;;;;;6301438;22;20095;-86
2023/12/25 05:10:46;;;;;;;7.20;1.55;;;11.40;99.90;;;;;;6301935;22;20337;-87
2023/12/25 05:13:12;;;;;;;9.57;2.28;;;11.40;99.90;;;;;;6302305;22;20011;-87
2023/12/25 05:15:37;;;;;;;6.05;2.30;;;11.40;99.90;;;;;;6276336;22;20057;-87
2023/12/25 05:18:04;;;;;;;9.48;1.75;;;11.40;99.90;;;;;;6276265;22;20029;-87
2023/12/25 05:20:29;;;;;;;8.43;1.83;;;11.40;99.90;;;;;;6302065;22;20442;-87
2023/12/25 05:22:55;;;;;;;10.77;1.98;;;11.30;99.90;;;;;;6301964;22;20022;-87
2023/12/25 05:25:21;;;;;;;4.22;1.45;;;11.40;99.90;;;;;;6275582;22;20011;-87
2023/12/25 05:27:46;;;;;;;9.27;2.58;;;11.40;99.90;;;;;;6275869;22;20014;-86
2023/12/25 05:30:12;;;;;;;6.30;2.05;;;11.40;99.90;;;;;;6275370;22;20033;-86
2023/12/25 05:32:38;;;;;;;5.93;2.25;;;11.30;99.90;;;;;;6301553;22;20023;-86
2023/12/25 05:35:05;;;;;;;5.30;1.80;;;11.30;99.90;;;;;;6301828;22;20018;-86
2023/12/25 05:37:31;;;;;;;6.03;1.92;;;11.40;99.90;;;;;;6301619;22;20194;-86
2023/12/25 05:39:57;;;;;;;4.55;1.60;;;11.40;99.90;;;;;;6275732;22;20007;-86
2023/12/25 05:42:22;;;;;;;9.15;1.40;;;11.40;99.90;;;;;;6275623;22;20348;-86
2023/12/25 05:44:48;;;;;;;7.60;1.70;;;11.40;99.90;;;;;;6303420;22;20195;-85
2023/12/25 05:47:14;;;;;;;7.45;1.75;;;11.40;99.90;;;;;;6275566;22;20015;-86
2023/12/25 05:49:40;;;;;;;10.52;2.30;;;11.40;99.90;;;;;;6301695;22;20018;-88
2023/12/25 05:52:06;;;;;;;10.25;2.17;;;11.30;99.90;;;;;;6275468;22;20094;-87
2023/12/25 05:54:31;;;;;;;8.45;2.15;;;11.30;99.90;;;;;;6275873;22;20015;-87
2023/12/25 05:56:57;;;;;;;6.28;1.95;;;11.30;99.90;;;;;;6301535;22;20022;-87
2023/12/25 05:59:23;;;;;;;8.48;1.70;;;11.40;99.90;;;;;;6301685;22;20023;-86
2023/12/25 06:01:49;;;;;;;8.65;1.88;;;11.30;99.90;;;;;;6301613;22;20034;-86
2023/12/25 06:04:15;;;;;;;4.40;2.00;;;11.30;99.90;;;;;;6275806;22;20011;-83
2023/12/25 06:06:40;;;;;;;12.20;2.97;;;11.40;99.90;;;;;;6249866;22;20033;-83
2023/12/25 06:09:10;;;;;;;9.32;2.15;;;11.30;99.90;;;;;;6274822;22;20042;-83
2023/12/25 06:11:38;;;;;;;13.05;2.03;;;11.30;99.90;;;;;;6273421;22;20043;-83
2023/12/25 06:14:05;;;;;;;8.68;1.83;;;11.30;99.90;;;;;;6275758;22;20046;-83
2023/12/25 06:16:34;;;;;;;10.63;2.13;;;11.30;99.90;;;;;;6252669;22;20015;-82
2023/12/25 06:19:03;;;;;;;14.45;2.33;;;11.30;99.90;;;;;;6302693;22;20092;-83
2023/12/25 06:21:28;;;;;;;9.18;1.98;;;11.30;99.90;;;;;;6303414;22;20455;-83
2023/12/25 06:24:01;;;;;;;;;;;11.30;99.90;;;;;;6304295;22;20011;-83
2023/12/25 06:26:27;;;;;;;6.97;2.35;;;11.30;99.90;;;;;;6276533;22;19917;-83
2023/12/25 06:28:59;;;;;;;5.95;2.00;;;11.30;99.90;;;;;;6276428;22;20050;-83
2023/12/25 06:31:29;;;;;;;8.45;2.47;;;11.30;99.90;;;;;;6302066;22;20019;-82
2023/12/25 06:34:13;;;;;;;8.30;1.67;;;11.30;99.90;;;;;;6298313;22;20399;-83
2023/12/25 06:36:42;;;;;;;8.35;2.00;;;11.20;99.90;;;;;;6301700;22;20011;-82
2023/12/25 06:39:07;;;;;;;8.25;1.92;;;11.20;99.90;;;;;;6276234;22;20491;-84
2023/12/25 06:41:35;;;;;;;10.85;1.67;;;11.30;99.90;;;;;;6302271;22;20038;-84
2023/12/25 06:44:00;;;;;;;7.45;2.55;;;11.30;99.90;;;;;;6302147;22;20015;-83
2023/12/25 06:46:27;;;;;;;10.88;2.40;;;11.20;99.90;;;;;;6303871;22;20315;-85
2023/12/25 06:49:02;;;;;;;8.88;2.08;;;11.20;99.90;;;;;;6304119;22;20049;-90
2023/12/25 06:51:28;;;;;;;6.43;1.77;;;11.20;99.90;;;;;;6279109;22;20019;-89
2023/12/25 06:53:54;;;;;;;11.77;2.17;;;11.20;99.90;;;;;;6304713;22;20031;-89
2023/12/25 06:56:19;;;;;;;5.80;1.60;;;11.20;99.90;;;;;;6278029;22;20029;-90
2023/12/25 06:58:45;;;;;;;11.63;2.15;;;11.20;99.90;;;;;;6303515;22;20094;-89
2023/12/25 07:01:10;;;;;;;6.90;1.50;;;11.20;99.90;;;;;;6303199;22;20015;-87
2023/12/25 07:03:36;;;;;;;6.90;1.80;;;11.20;99.90;;;;;;6302987;22;20011;-88
2023/12/25 07:06:02;;;;;;;8.07;1.67;;;11.10;99.90;;;;;;6302729;22;20090;-88
2023/12/25 07:08:28;;;;;;;11.80;1.90;;;11.10;99.90;;;;;;6303212;22;20545;-89
2023/12/25 07:10:57;;;;;;;5.30;1.92;;;11.10;99.90;;;;;;6303838;22;20113;-86
2023/12/25 07:13:23;;;;;;;11.75;2.53;;;11.10;99.90;;;;;;6303371;22;20343;-89
2023/12/25 07:15:48;;;;;;;8.68;1.80;;;11.10;99.90;;;;;;6303370;22;20019;-87
2023/12/25 07:18:14;;;;;;;8.55;2.55;;;11.10;99.90;;;;;;6302547;22;20455;-87
2023/12/25 07:20:40;;;;;;;7.97;1.70;;;11.00;99.90;;;;;;6305372;22;20015;-86
2023/12/25 07:23:06;;;;;;;8.23;2.30;;;11.00;99.90;;;;;;6283313;22;20011;-84
2023/12/25 07:25:32;;;;;;;11.90;1.90;;;11.10;99.90;;;;;;6308722;22;20068;-85
2023/12/25 07:27:57;;;;;;;6.72;1.95;;;11.00;99.90;;;;;;6308094;22;20026;-80
2023/12/25 07:30:23;;;;;;;6.70;2.05;;;11.00;99.90;;;;;;6309306;22;20026;-84
2023/12/25 07:32:48;;;;;;;8.43;1.73;;;11.00;99.90;;;;;;6308721;22;20106;-85
2023/12/25 07:35:14;;;;;;;9.65;2.20;;;11.00;99.90;;;;;;6309074;22;20168;-86
2023/12/25 07:37:40;;;;;;;6.75;1.65;;;11.00;99.90;;;;;;6286772;22;20289;-84
2023/12/25 07:40:06;;;;;;;9.18;2.17;;;11.00;99.90;;;;;;6314639;22;20022;-94
2023/12/25 07:42:32;;;;;;;10.70;1.92;;;11.00;99.90;;;;;;6288557;22;20019;-93
2023/12/25 07:44:57;;;;;;;10.77;2.15;;;11.00;99.90;;;;;;6287190;22;20045;-91
2023/12/25 07:47:23;;;;;;;7.47;1.98;;;11.00;99.90;;;;;;6307199;22;20019;-92
2023/12/25 07:49:49;;;;;;;6.53;1.40;;;11.00;99.90;;;;;;6322488;22;20015;-92
2023/12/25 07:52:15;;;;;;;6.82;2.22;;;11.00;99.90;;;;;;6316539;22;20114;-93
2023/12/25 07:54:41;;;;;;;6.38;1.85;;;10.90;99.90;;;;;;6305967;22;20124;-94
2023/12/25 07:57:07;;;;;;;9.48;2.00;;;10.90;99.90;;;;;;6305396;22;20083;-94
2023/12/25 07:59:32;;;;;;;13.82;1.75;;;10.90;99.90;;;;;;6306196;22;20015;-89
2023/12/25 08:01:58;;;;;;;6.13;2.05;;;11.00;99.90;;;;;;6302440;22;20080;-89
2023/12/25 08:04:24;;;;;;;3.85;1.70;;;10.90;99.90;;;;;;6303895;22;20023;-91
2023/12/25 08:06:49;;;;;;;4.55;1.55;;;10.90;99.90;;;;;;6304255;22;20023;-89
2023/12/25 08:09:15;;;;;;;4.63;1.50;;;10.80;99.90;;;;;;6304567;22;20099;-89
2023/12/25 08:11:41;;;;;;;9.27;1.80;;;10.80;99.90;;;;;;6304372;22;20463;-89
2023/12/25 08:14:06;;;;;;;9.75;2.00;;;10.80;99.90;;;;;;6304644;22;20012;-87
2023/12/25 08:16:32;;;;;;;5.18;1.60;;;10.80;99.90;;;;;;6304641;22;20015;-89
2023/12/25 08:18:58;;;;;;;9.38;1.73;;;10.70;99.90;;;;;;6302773;22;20011;-89
2023/12/25 08:21:23;;;;;;;9.82;1.83;;;10.80;99.90;;;;;;6304929;22;20395;-90
2023/12/25 08:23:49;;;;;;;12.30;2.03;;;10.80;99.90;;;;;;6305204;22;20019;-91
2023/12/25 08:26:15;;;;;;;6.63;1.83;;;10.80;99.90;;;;;;6306935;22;20011;-92
2023/12/25 08:28:41;;;;;;;4.95;2.10;;;10.70;99.90;;;;;;6307250;22;20520;-92
2023/12/25 08:31:07;;;;;;;6.03;1.50;;;10.70;99.90;;;;;;6305243;22;20011;-92
2023/12/25 08:33:35;;;;;;;8.75;1.92;;;10.80;99.90;;;;;;6279525;22;20022;-91
2023/12/25 08:36:01;;;;;;;9.27;2.13;;;10.70;99.90;;;;;;6306200;22;20015;-91
2023/12/25 08:38:26;;;;;;;9.82;1.85;;;10.70;99.90;;;;;;6303663;22;20026;-84
2023/12/25 08:40:53;;;;;;;6.32;2.13;;;10.70;99.90;;;;;;6301997;22;20768;-84
2023/12/25 08:43:18;;;;;;;9.45;1.90;;;10.80;99.90;;;;;;6302395;22;20030;-87
2023/12/25 08:45:44;;;;;;;5.75;1.60;;;10.80;99.90;;;;;;6302315;22;20439;-86
2023/12/25 08:48:10;;;;;;;6.03;1.50;;;10.80;99.90;;;;;;6302163;22;20049;-86
2023/12/25 08:50:36;;;;;;;8.75;2.33;;;10.80;99.90;;;;;;6302327;22;20034;-87
2023/12/25 08:53:02;;;;;;;5.93;1.52;;;10.80;99.90;;;;;;6302116;22;20007;-87
2023/12/25 08:55:27;;;;;;;4.30;1.60;;;10.70;99.90;;;;;;6302834;22;20026;-86
2023/12/25 08:57:53;;;;;;;10.02;2.60;;;10.80;99.90;;;;;;6276546;22;20023;-87
2023/12/25 09:00:20;;;;;;;8.75;2.10;;;10.70;99.90;;;;;;6305219;22;20376;-87
2023/12/25 09:02:46;;;;;;;5.78;1.50;;;10.70;99.90;;;;;;6305219;22;20087;-87
2023/12/25 09:05:12;;;;;;;7.03;1.70;;;10.80;99.90;;;;;;6305302;22;20108;-88
2023/12/25 09:07:37;;;;;;;5.95;2.17;;;10.70;99.90;;;;;;6305407;22;20012;-88
2023/12/25 09:10:06;;;;;;;6.68;1.65;;;10.70;99.90;;;;;;6305776;22;20026;-89
2023/12/25 09:12:32;;;;;;;6.50;1.50;;;10.70;99.90;;;;;;6305369;22;20007;-88
2023/12/25 09:14:58;;;;;;;5.03;1.58;;;10.80;99.90;;;;;;6302987;22;20099;-88
2023/12/25 09:17:24;;;;;;;7.78;2.70;;;10.80;99.90;;;;;;6303920;22;20731;-87
2023/12/25 09:19:50;;;;;;;6.55;2.13;;;10.80;99.90;;;;;;6302119;22;20011;-88
2023/12/25 09:22:17;;;;;;;7.47;2.08;;;10.70;99.90;;;;;;6302428;22;20019;-88
2023/12/25 09:24:44;;;;;;;9.70;1.80;;;10.70;99.90;;;;;;6302470;22;20104;-88
2023/12/25 09:27:10;;;;;;;8.60;2.55;;;10.70;99.90;;;;;;6303169;22;20384;-88
2023/12/25 09:29:36;;;;;;;7.13;2.15;;;10.70;99.90;;;;;;6302660;22;20344;-88
2023/12/25 09:32:03;;;;;;;7.20;2.78;;;10.70;99.90;;;;;;6303279;22;20015;-89
2023/12/25 09:34:28;;;;;;;8.40;2.60;;;10.70;99.90;;;;;;6302998;22;20440;-89
2023/12/25 09:36:56;;;;;;;11.13;2.47;;;10.80;99.90;;;;;;6302778;22;20084;-89
2023/12/25 09:39:22;;;;;;;11.82;2.28;;;10.80;99.90;;;;;;6302948;22;20026;-89
2023/12/25 09:41:48;;;;;;;11.27;3.35;;;10.80;99.90;;;;;;6302393;22;20015;-88
2023/12/25 09:44:14;;;;;;;9.82;2.20;;;10.80;99.90;;;;;;6302493;22;20108;-88
2023/12/25 09:46:40;;;;;;;6.43;2.10;;;10.80;99.90;;;;;;6276662;22;20059;-87
2023/12/25 09:49:06;;;;;;;15.63;2.05;;;10.80;99.90;;;;;;6305737;22;20015;-88
2023/12/25 09:51:33;;;;;;;13.15;2.22;;;10.80;99.90;;;;;;6305609;22;20069;-88
2023/12/25 09:53:59;;;;;;;10.45;2.38;;;10.80;99.90;;;;;;6306958;22;20054;-87
2023/12/25 09:56:27;;;;;;;10.30;2.55;;;10.80;99.90;;;;;;6307216;22;20023;-88
2023/12/25 09:58:54;;;;;;;6.90;2.17;;;10.80;99.90;;;;;;6305972;22;20050;-87
2023/12/25 10:01:21;;;;;;;11.82;2.88;;;10.80;99.90;;;;;;6304894;22;20023;-87
2023/12/25 10:03:47;;;;;;;10.60;3.05;;;10.80;99.90;;;;;;6311081;22;20133;-87
2023/12/25 10:06:13;;;;;;;8.57;2.38;;;10.80;99.90;;;;;;6313763;22;20026;-87
2023/12/25 10:08:39;;;;;;;10.45;2.22;;;10.90;99.90;;;;;;6306843;22;20351;-88
2023/12/25 10:11:08;;;;;;;6.85;2.20;;;10.90;99.90;;;;;;6306600;22;20086;-88
2023/12/25 10:13:34;;;;;;;11.95;2.92;;;10.90;99.90;;;;;;6305525;22;20046;-88
2023/12/25 10:16:02;;;;;;;9.52;2.28;;;10.90;99.90;;;;;;6309946;22;20012;-88
2023/12/25 10:18:28;;;;;;;10.80;2.30;;;10.90;99.90;;;;;;6313227;22;20019;-87
2023/12/25 10:20:59;;;;;;;7.55;2.10;;;10.90;99.90;;;;;;6310814;22;20030;-87
2023/12/25 10:23:32;;;;;;;11.60;2.60;;;10.90;99.90;;;;;;6306127;22;20327;-87
2023/12/25 10:26:00;;;;;;;12.43;2.15;;;10.90;99.90;;;;;;6308154;22;20015;-87
2023/12/25 10:28:27;;;;;;;13.93;3.00;;;10.90;99.90;;;;;;6280152;22;20022;-89
2023/12/25 10:31:08;;;;;;;10.02;2.30;;;11.00;99.90;;;;;;6309236;22;20019;-88
2023/12/25 10:33:37;;;;;;;8.38;2.10;;;10.90;99.90;;;;;;6305944;22;20110;-85
2023/12/25 10:36:07;;;;;;;10.93;2.67;;;11.00;99.90;;;;;;6305820;22;20030;-86
2023/12/25 10:38:38;;;;;;;5.43;2.30;;;11.00;99.90;;;;;;6279995;22;20011;-87
2023/12/25 10:41:26;;;;;;;11.38;2.38;;;11.00;99.90;;;;;;6306741;22;20018;-87
2023/12/25 10:43:53;;;;;;;9.38;3.05;;;11.00;99.90;;;;;;6305785;22;20458;-87
2023/12/25 10:46:36;;;;;;;10.10;2.22;;;11.00;99.90;;;;;;6308161;22;20023;-87
2023/12/25 10:49:05;;;;;;;9.52;2.10;;;11.00;99.90;;;;;;6308646;22;20015;-86
2023/12/25 10:51:34;;;;;;;11.18;2.25;;;11.10;99.90;;;;;;6309210;22;20012;-87
2023/12/25 10:54:02;;;;;;;9.20;2.17;;;11.10;99.90;;;;;;6311347;22;20050;-88
2023/12/25 10:56:32;;;;;;;8.23;2.28;;;11.10;99.90;;;;;;6313871;22;20118;-87
2023/12/25 10:59:10;;;;;;;12.18;2.70;;;11.10;99.90;;;;;;6313040;22;20077;-86
2023/12/25 11:01:37;;;;;;;8.18;2.53;;;11.10;99.90;;;;;;6311474;22;20011;-86
2023/12/25 11:04:03;;;;;;;9.93;1.92;;;11.10;99.90;;;;;;6311827;22;20015;-87
2023/12/25 11:06:29;;;;;;;10.27;2.22;;;11.10;99.90;;;;;;6312082;22;20052;-87
2023/12/25 11:08:55;;;;;;;6.82;1.90;;;11.10;99.90;;;;;;6308717;22;20311;-87
2023/12/25 11:11:23;;;;;;;8.38;2.28;;;11.10;99.90;;;;;;6283744;22;20019;-87
2023/12/25 11:13:49;;;;;;;9.25;2.13;;;11.10;99.90;;;;;;6287125;22;20087;-87
2023/12/25 11:16:16;;;;;;;8.13;2.17;;;11.10;99.90;;;;;;6308469;22;20023;-86
2023/12/25 11:18:42;;;;;;;10.10;2.05;;;11.10;99.90;;;;;;6309110;22;20344;-87
2023/12/25 11:21:11;;;;;;;11.80;2.50;;;11.10;99.90;;;;;;6308079;22;20019;-86
2023/12/25 11:23:42;;;;;;;14.68;2.60;;;11.10;99.90;;;;;;6306741;22;20019;-87
2023/12/25 11:26:12;;;;;;;7.10;2.38;;;11.10;99.90;;;;;;6307254;22;20094;-88
2023/12/25 11:28:41;;;;;;;10.82;2.30;;;11.10;99.90;;;;;;6310207;22;20015;-87
2023/12/25 11:31:08;;;;;;;10.73;2.40;;;11.10;99.90;;;;;;6308499;22;20023;-85
2023/12/25 11:33:46;;;;;;;13.18;2.05;;;11.20;99.90;;;;;;6310977;22;20019;-85
2023/12/25 11:36:17;;;;;;;8.82;2.78;;;11.20;99.90;;;;;;6313505;22;20084;-87
2023/12/25 11:38:47;;;;;;;9.82;2.83;;;11.20;99.90;;;;;;6313391;22;20019;-87
2023/12/25 11:41:17;;;;;;;6.95;1.90;;;11.20;99.90;;;;;;6311730;22;20015;-88
2023/12/25 11:43:46;;;;;;;12.15;2.72;;;11.20;99.90;;;;;;6311461;22;20027;-87
2023/12/25 11:46:18;;;;;;;11.23;2.05;;;11.20;99.90;;;;;;6313717;22;20049;-86
2023/12/25 11:48:45;;;;;;;8.07;1.75;;;11.20;99.90;;;;;;6314560;22;20015;-87
2023/12/25 11:51:25;;;;;;;10.35;2.10;;;11.30;99.90;;;;;;6312108;22;20081;-87
2023/12/25 11:53:55;;;;;;;9.50;3.15;;;11.30;99.90;;;;;;6312577;22;20013;-87
2023/12/25 11:56:21;;;;;;;8.88;2.50;;;11.30;99.90;;;;;;6310007;22;20019;-87
2023/12/25 11:58:48;;;;;;;12.48;3.15;;;11.30;99.90;;;;;;6306917;22;20057;-87
2023/12/25 12:01:17;;;;;;;13.70;2.33;;;11.30;99.90;;;;;;6306604;22;20030;-87
2023/12/25 12:03:47;;;;;;;8.82;3.22;;;11.20;99.90;;;;;;6306877;22;20105;-88
2023/12/25 12:06:14;;;;;;;7.38;2.10;;;11.30;99.90;;;;;;6306288;22;20019;-88
2023/12/25 12:08:41;;;;;;;10.73;2.60;;;11.30;99.90;;;;;;6310607;22;20084;-88
2023/12/25 12:11:08;;;;;;;10.18;2.67;;;11.30;99.90;;;;;;6310504;22;20046;-88
2023/12/25 12:13:36;;;;;;;10.63;2.13;;;11.30;99.90;;;;;;6310998;22;20115;-87
2023/12/25 12:16:02;;;;;;;11.07;2.33;;;11.30;99.90;;;;;;6309835;22;20063;-87
2023/12/25 12:18:28;;;;;;;15.48;2.13;;;11.30;99.90;;;;;;6308612;22;20012;-86
2023/12/25 12:20:55;;;;;;;10.43;1.95;;;11.30;99.90;;;;;;6310152;22;20013;-87
2023/12/25 12:23:21;;;;;;;10.63;2.08;;;11.30;99.90;;;;;;6308783;22;20015;-87
2023/12/25 12:25:46;;;;;;;6.93;2.20;;;11.30;99.90;;;;;;6303401;22;20011;-86
2023/12/25 12:28:15;;;;;;;12.43;2.00;;;11.30;99.90;;;;;;6303744;22;20103;-88
2023/12/25 12:30:42;;;;;;;12.40;2.10;;;11.30;99.90;;;;;;6304047;22;20015;-88
2023/12/25 12:33:12;;;;;;;10.05;2.50;;;11.30;99.90;;;;;;6305831;22;20023;-88
2023/12/25 12:35:41;;;;;;;10.35;2.45;;;11.30;99.90;;;;;;6304543;22;20019;-88
2023/12/25 12:38:10;;;;;;;9.65;2.15;;;11.30;99.90;;;;;;6306117;22;20018;-89
2023/12/25 12:40:35;;;;;;;7.03;2.33;;;11.30;99.90;;;;;;6304027;22;20011;-89